METAR Data
IDs: Format: Raw Decoded Include TAF

Data at: 1512 UTC 27 Nov 2021

LRCL 271500Z VRB02KT CAVOK 07/04 Q1001